Time;durP1;ratioP1;P1;durP2;ratioP2;P2;SDS_P1;SDS_P2;PMS_P1;PMS_P2;Temp;Humidity;BMP_temperature;BMP_pressure;BME280_temperature;BME280_humidity;BME280_pressure;Samples;Min_cycle;Max_cycle;Signal;HPM_P1;HPM_P2
2021/03/31 00:00:50;;;;;;;1.80;0.20;;;14.00;74.70;;;;;;4960905;28;20035;-81
2021/03/31 00:03:19;;;;;;;0.00;0.00;;;14.00;75.80;;;;;;4966267;28;20035;-80
2021/03/31 00:05:45;;;;;;;0.25;0.25;;;14.40;74.70;;;;;;4967928;28;20519;-80
2021/03/31 00:08:11;;;;;;;0.20;0.20;;;14.30;74.80;;;;;;4963842;28;20041;-80
2021/03/31 00:10:45;;;;;;;0.25;0.25;;;14.00;75.10;;;;;;4963302;28;20711;-81
2021/03/31 00:13:12;;;;;;;1.85;0.65;;;13.70;76.70;;;;;;4956142;28;20035;-81
2021/03/31 00:15:38;;;;;;;0.25;0.25;;;13.60;77.20;;;;;;4967866;28;20027;-80
2021/03/31 00:18:08;;;;;;;4.33;1.07;;;13.50;78.20;;;;;;4970942;28;20539;-81
2021/03/31 00:20:34;;;;;;;0.63;0.63;;;13.40;78.20;;;;;;4970658;28;20486;-81
2021/03/31 00:23:05;;;;;;;4.55;2.00;;;13.00;79.90;;;;;;4960688;28;20038;-81
2021/03/31 00:25:31;;;;;;;1.67;0.52;;;13.20;79.80;;;;;;4968592;28;20046;-81
2021/03/31 00:27:57;;;;;;;1.40;0.80;;;13.00;82.50;;;;;;4967214;28;20534;-81
2021/03/31 00:30:23;;;;;;;2.80;1.35;;;12.90;81.60;;;;;;4969947;28;20385;-81
2021/03/31 00:32:49;;;;;;;0.10;0.10;;;12.80;82.90;;;;;;4967681;28;20535;-81
2021/03/31 00:35:16;;;;;;;0.50;0.50;;;12.90;82.10;;;;;;4959188;28;20046;-81
2021/03/31 00:37:42;;;;;;;1.25;1.15;;;12.70;83.40;;;;;;4968283;28;20045;-81
2021/03/31 00:40:11;;;;;;;0.10;0.10;;;12.60;83.80;;;;;;4963827;28;20027;-81
2021/03/31 00:42:37;;;;;;;2.55;1.27;;;12.60;84.20;;;;;;4970999;28;20023;-81
2021/03/31 00:45:06;;;;;;;0.20;0.20;;;12.70;83.80;;;;;;4955166;28;20031;-81
2021/03/31 00:47:32;;;;;;;1.10;0.30;;;12.50;84.90;;;;;;4963134;28;20031;-81
2021/03/31 00:49:58;;;;;;;0.20;0.20;;;12.50;84.10;;;;;;4970721;28;20023;-80
2021/03/31 00:52:24;;;;;;;0.08;0.08;;;12.40;85.70;;;;;;4963404;28;20753;-80
2021/03/31 00:54:50;;;;;;;0.45;0.45;;;12.40;85.20;;;;;;4960685;28;20157;-81
2021/03/31 00:57:17;;;;;;;0.82;0.35;;;12.20;86.40;;;;;;4968465;28;20027;-81
2021/03/31 00:59:43;;;;;;;0.52;0.52;;;12.00;94.40;;;;;;4959543;28;20034;-81
2021/03/31 01:02:09;;;;;;;5.82;1.75;;;12.20;87.00;;;;;;4959927;28;20037;-81
2021/03/31 01:04:35;;;;;;;0.10;0.10;;;12.30;86.10;;;;;;4968928;28;20026;-81
2021/03/31 01:07:01;;;;;;;0.65;0.47;;;12.30;86.10;;;;;;4961480;28;20033;-81
2021/03/31 01:09:27;;;;;;;0.45;0.45;;;12.30;86.20;;;;;;4968522;28;20034;-81
2021/03/31 01:12:07;;;;;;;0.20;0.20;;;11.80;87.00;;;;;;4966180;28;20042;-80
2021/03/31 01:14:51;;;;;;;0.03;0.03;;;12.10;86.70;;;;;;4960839;28;20030;-80
2021/03/31 01:17:31;;;;;;;0.20;0.20;;;12.10;87.20;;;;;;4962951;28;20031;-80
2021/03/31 01:20:20;;;;;;;0.70;0.40;;;11.80;89.00;;;;;;4968372;28;20394;-80
2021/03/31 01:23:05;;;;;;;0.88;0.88;;;12.10;87.10;;;;;;4967746;28;20035;-81
2021/03/31 01:25:45;;;;;;;0.50;0.50;;;12.00;87.90;;;;;;4960444;28;20043;-80
2021/03/31 01:28:35;;;;;;;0.30;0.30;;;11.80;88.20;;;;;;4963793;28;20115;-81
2021/03/31 01:31:18;;;;;;;0.00;0.00;;;11.70;89.70;;;;;;4970381;28;20041;-80
2021/03/31 01:34:02;;;;;;;2.70;1.85;;;11.80;88.70;;;;;;4957492;28;20028;-81
2021/03/31 01:36:29;;;;;;;0.10;0.10;;;11.70;89.60;;;;;;4966193;28;20065;-81
2021/03/31 01:39:00;;;;;;;0.30;0.30;;;11.60;90.20;;;;;;4960305;28;20027;-81
2021/03/31 01:41:26;;;;;;;0.35;0.35;;;11.50;89.80;;;;;;4966725;28;20026;-81
2021/03/31 01:43:57;;;;;;;0.10;0.10;;;11.60;90.40;;;;;;4965749;28;20027;-81
2021/03/31 01:46:27;;;;;;;0.10;0.10;;;11.50;90.40;;;;;;4966573;28;20117;-81
2021/03/31 01:48:55;;;;;;;0.25;0.25;;;11.40;91.20;;;;;;4962870;28;20460;-81
2021/03/31 01:51:22;;;;;;;1.65;0.63;;;11.30;90.80;;;;;;4969100;28;20018;-81
2021/03/31 01:53:48;;;;;;;;;;;11.20;91.40;;;;;;4960750;28;20027;-81
2021/03/31 01:56:17;;;;;;;0.10;0.10;;;11.10;90.90;;;;;;4957323;28;19942;-81
2021/03/31 01:58:44;;;;;;;0.10;0.10;;;11.10;91.20;;;;;;4969615;28;20084;-81
2021/03/31 02:01:14;;;;;;;1.45;0.73;;;11.00;91.50;;;;;;4970414;28;20039;-81
2021/03/31 02:03:41;;;;;;;0.30;0.20;;;11.00;91.70;;;;;;4965987;28;20546;-81
2021/03/31 02:06:07;;;;;;;0.15;0.15;;;11.10;91.30;;;;;;4959593;28;20035;-81
2021/03/31 02:08:33;;;;;;;0.38;0.38;;;11.00;91.40;;;;;;4964538;28;20019;-81
2021/03/31 02:10:59;;;;;;;7.97;0.43;;;11.10;91.30;;;;;;4959387;28;20031;-81
2021/03/31 02:13:25;;;;;;;3.42;1.38;;;11.10;91.10;;;;;;4962439;28;20035;-81
2021/03/31 02:15:57;;;;;;;1.67;0.68;;;11.00;97.40;;;;;;4967387;28;20117;-81
2021/03/31 02:18:25;;;;;;;0.55;0.55;;;11.10;91.40;;;;;;4968460;28;20031;-81
2021/03/31 02:20:53;;;;;;;0.30;0.30;;;10.90;91.70;;;;;;4965781;28;20031;-81
2021/03/31 02:23:20;;;;;;;0.40;0.40;;;10.90;91.70;;;;;;4961252;28;20067;-80
2021/03/31 02:25:49;;;;;;;0.10;0.10;;;10.90;91.80;;;;;;4964500;28;20038;-81
2021/03/31 02:28:15;;;;;;;0.75;0.68;;;10.80;91.90;;;;;;4967943;28;20034;-81
2021/03/31 02:30:41;;;;;;;0.43;0.43;;;10.60;92.10;;;;;;4958877;28;20105;-81
2021/03/31 02:33:10;;;;;;;3.40;1.17;;;10.70;92.50;;;;;;4960237;28;20027;-81
2021/03/31 02:35:37;;;;;;;0.10;0.10;;;10.60;92.60;;;;;;4965090;28;20070;-80
2021/03/31 02:38:06;;;;;;;0.32;0.32;;;10.60;92.50;;;;;;4961622;28;20105;-81
2021/03/31 02:40:34;;;;;;;0.57;0.38;;;10.50;92.70;;;;;;4967155;28;20073;-80
2021/03/31 02:43:01;;;;;;;0.30;0.30;;;10.50;92.90;;;;;;4959278;28;20922;-79
2021/03/31 02:45:30;;;;;;;0.15;0.15;;;10.50;92.80;;;;;;4965587;28;20117;-80
2021/03/31 02:47:59;;;;;;;0.15;0.15;;;10.30;92.80;;;;;;4968143;28;20041;-80
2021/03/31 02:50:28;;;;;;;0.13;0.13;;;10.40;92.90;;;;;;4966663;28;20031;-80
2021/03/31 02:52:54;;;;;;;0.22;0.22;;;10.40;92.90;;;;;;4967852;28;20019;-80
2021/03/31 02:55:23;;;;;;;0.10;0.10;;;10.30;93.20;;;;;;4968069;28;20041;-80
2021/03/31 02:57:50;;;;;;;0.43;0.43;;;10.40;93.10;;;;;;4965895;28;20530;-81
2021/03/31 03:00:17;;;;;;;0.08;0.08;;;10.60;99.10;;;;;;4966468;28;20030;-81
2021/03/31 03:02:45;;;;;;;1.33;0.93;;;10.50;93.10;;;;;;4960643;28;20525;-80
2021/03/31 03:05:14;;;;;;;0.40;0.20;;;10.50;93.00;;;;;;4967040;28;20030;-80
2021/03/31 03:07:40;;;;;;;0.00;0.00;;;10.40;93.10;;;;;;4958433;28;20068;-81
2021/03/31 03:10:08;;;;;;;7.80;0.60;;;10.20;92.90;;;;;;4969043;28;20018;-80
2021/03/31 03:12:38;;;;;;;0.10;0.10;;;10.10;93.50;;;;;;4961654;28;20031;-80
2021/03/31 03:15:05;;;;;;;0.00;0.00;;;10.10;99.60;;;;;;4983839;28;20427;-81
2021/03/31 03:17:31;;;;;;;;;;;10.10;93.60;;;;;;4955714;28;20034;-81
2021/03/31 03:19:57;;;;;;;0.10;0.10;;;10.10;93.80;;;;;;4963590;28;20628;-81
2021/03/31 03:22:24;;;;;;;0.60;0.47;;;10.10;93.50;;;;;;4968611;28;20465;-81
2021/03/31 03:24:51;;;;;;;2.53;1.25;;;10.30;93.20;;;;;;4972474;28;20066;-80
2021/03/31 03:27:18;;;;;;;0.03;0.03;;;10.10;93.40;;;;;;4968903;28;20042;-80
2021/03/31 03:29:45;;;;;;;;;;;10.10;94.00;;;;;;4967154;28;20395;-80
2021/03/31 03:32:11;;;;;;;;;;;10.00;93.60;;;;;;4962020;28;19922;-80
2021/03/31 03:34:38;;;;;;;0.20;0.20;;;10.10;93.40;;;;;;4967441;28;19913;-80
2021/03/31 03:37:04;;;;;;;0.00;0.00;;;10.20;92.90;;;;;;4971488;28;20270;-81
2021/03/31 03:39:30;;;;;;;2.63;1.75;;;10.20;93.20;;;;;;4969156;28;20039;-81
2021/03/31 03:41:56;;;;;;;1.10;0.80;;;10.40;92.70;;;;;;4962058;28;20505;-80
2021/03/31 03:44:23;;;;;;;1.50;0.80;;;10.40;92.70;;;;;;4965907;28;20031;-81
2021/03/31 03:46:52;;;;;;;0.65;0.65;;;10.40;93.10;;;;;;4967618;28;20875;-80
2021/03/31 03:49:18;;;;;;;1.13;0.73;;;10.40;93.30;;;;;;4963133;28;20041;-81
2021/03/31 03:51:45;;;;;;;0.40;0.40;;;10.30;92.80;;;;;;4968381;28;20019;-81
2021/03/31 03:54:11;;;;;;;0.10;0.10;;;10.30;93.00;;;;;;4965461;28;20035;-80
2021/03/31 03:56:37;;;;;;;0.00;0.00;;;10.30;92.80;;;;;;4968424;28;20054;-80
2021/03/31 03:59:35;;;;;;;0.30;0.30;;;10.20;93.00;;;;;;4971392;28;20035;-80
2021/03/31 04:02:01;;;;;;;0.00;0.00;;;9.90;95.80;;;;;;4930688;29;20043;-80
2021/03/31 04:04:27;;;;;;;0.00;0.00;;;10.10;93.70;;;;;;4931368;29;20040;-80
2021/03/31 04:06:59;;;;;;;0.00;0.00;;;10.00;93.60;;;;;;4930409;29;20079;-80
2021/03/31 04:09:24;;;;;;;0.20;0.20;;;9.80;94.00;;;;;;4914170;29;20691;-80
2021/03/31 04:11:51;;;;;;;3.42;1.00;;;9.70;93.90;;;;;;4930625;29;20051;-80
2021/03/31 04:14:17;;;;;;;;;;;9.60;94.80;;;;;;4931172;29;20046;-80
2021/03/31 04:16:46;;;;;;;2.47;0.80;;;9.60;94.40;;;;;;4914525;29;19911;-80
2021/03/31 04:19:14;;;;;;;0.00;0.00;;;9.60;94.40;;;;;;4930636;29;20542;-80
2021/03/31 04:21:41;;;;;;;0.43;0.38;;;9.70;94.20;;;;;;4929780;29;20047;-81
2021/03/31 04:24:13;;;;;;;0.80;0.30;;;9.60;94.30;;;;;;4930841;29;20039;-81
2021/03/31 04:26:39;;;;;;;0.20;0.20;;;9.40;94.80;;;;;;4931166;29;20069;-82
2021/03/31 04:29:07;;;;;;;0.68;0.68;;;9.40;94.60;;;;;;4930723;29;20504;-81
2021/03/31 04:31:35;;;;;;;0.00;0.00;;;9.20;95.10;;;;;;4930993;29;20043;-82
2021/03/31 04:34:02;;;;;;;2.00;0.95;;;9.30;95.00;;;;;;4930357;29;20036;-82
2021/03/31 04:36:31;;;;;;;3.00;0.32;;;9.40;94.80;;;;;;4931107;29;20047;-81
2021/03/31 04:38:57;;;;;;;0.05;0.05;;;9.20;95.20;;;;;;4960019;28;20031;-81
2021/03/31 04:41:23;;;;;;;0.65;0.30;;;9.20;95.20;;;;;;4969447;28;20073;-80
2021/03/31 04:43:49;;;;;;;2.28;0.60;;;9.30;94.90;;;;;;4965692;28;20023;-81
2021/03/31 04:46:15;;;;;;;0.65;0.65;;;9.20;95.20;;;;;;4970284;28;20434;-81
2021/03/31 04:48:42;;;;;;;1.67;1.00;;;9.30;95.20;;;;;;4977070;28;20030;-80
2021/03/31 04:51:08;;;;;;;2.17;0.80;;;9.20;95.40;;;;;;4968981;28;20031;-80
2021/03/31 04:53:35;;;;;;;0.45;0.45;;;9.10;95.90;;;;;;4962162;28;20376;-80
2021/03/31 04:56:02;;;;;;;0.00;0.00;;;8.90;95.80;;;;;;4964280;28;20445;-80
2021/03/31 04:58:28;;;;;;;0.90;0.28;;;9.10;95.20;;;;;;4957922;28;20031;-80
2021/03/31 05:00:55;;;;;;;0.07;0.07;;;9.20;95.30;;;;;;4969381;28;20048;-81
2021/03/31 05:03:21;;;;;;;0.00;0.00;;;9.10;96.10;;;;;;4962897;28;21617;-81
2021/03/31 05:05:47;;;;;;;0.33;0.33;;;9.20;95.50;;;;;;4970643;28;20078;-81
2021/03/31 05:08:14;;;;;;;0.10;0.10;;;9.20;95.70;;;;;;4965761;28;20031;-82
2021/03/31 05:10:40;;;;;;;0.17;0.17;;;9.10;96.20;;;;;;4967501;28;20031;-81
2021/03/31 05:13:06;;;;;;;0.10;0.10;;;9.20;96.00;;;;;;4965452;28;20399;-81
2021/03/31 05:15:33;;;;;;;0.20;0.20;;;9.10;95.80;;;;;;4961027;28;20028;-81
2021/03/31 05:17:59;;;;;;;0.47;0.47;;;9.10;95.70;;;;;;4962937;28;20031;-80
2021/03/31 05:20:25;;;;;;;0.08;0.08;;;9.00;96.00;;;;;;4957337;28;20102;-80
2021/03/31 05:22:52;;;;;;;0.98;0.50;;;9.00;96.10;;;;;;4955710;28;20035;-80
2021/03/31 05:25:18;;;;;;;0.00;0.00;;;8.90;96.20;;;;;;4963523;28;20027;-80
2021/03/31 05:27:44;;;;;;;0.20;0.20;;;8.90;96.30;;;;;;4968462;28;20166;-81
2021/03/31 05:30:12;;;;;;;0.10;0.10;;;9.00;96.40;;;;;;4962311;28;20085;-79
2021/03/31 05:32:38;;;;;;;0.10;0.10;;;8.90;96.50;;;;;;4964109;28;20032;-80
2021/03/31 05:35:08;;;;;;;6.82;1.65;;;9.00;96.40;;;;;;4963297;28;20062;-81
2021/03/31 05:37:35;;;;;;;0.10;0.10;;;8.90;97.10;;;;;;4966117;28;20035;-81
2021/03/31 05:40:04;;;;;;;0.30;0.30;;;8.90;97.10;;;;;;4968599;28;20039;-81
2021/03/31 05:42:34;;;;;;;0.10;0.10;;;9.00;97.20;;;;;;4970516;28;20122;-81
2021/03/31 05:45:02;;;;;;;0.20;0.20;;;9.00;97.00;;;;;;4964651;28;20050;-81
2021/03/31 05:47:31;;;;;;;1.00;0.63;;;9.10;97.00;;;;;;4964641;28;20033;-80
2021/03/31 05:49:58;;;;;;;0.30;0.30;;;9.10;97.00;;;;;;4969908;28;20085;-80
2021/03/31 05:52:24;;;;;;;;;;;9.10;97.70;;;;;;4971099;28;20023;-81
2021/03/31 05:54:51;;;;;;;0.20;0.20;;;9.40;97.70;;;;;;4970921;28;19914;-80
2021/03/31 05:57:19;;;;;;;0.45;0.45;;;9.70;97.20;;;;;;4971043;28;20035;-80
2021/03/31 05:59:46;;;;;;;0.13;0.13;;;9.80;97.00;;;;;;4967054;28;20043;-80
2021/03/31 06:02:15;;;;;;;2.55;0.57;;;10.00;96.60;;;;;;4969587;28;20515;-80
2021/03/31 06:04:43;;;;;;;1.23;1.08;;;10.00;96.60;;;;;;4970899;28;20035;-81
2021/03/31 06:07:09;;;;;;;4.05;1.55;;;10.30;98.10;;;;;;4968341;28;20113;-84
2021/03/31 06:09:55;;;;;;;0.10;0.10;;;10.20;96.40;;;;;;4967329;28;20222;-85
2021/03/31 06:12:30;;;;;;;10.50;0.50;;;10.40;96.60;;;;;;4963295;28;20380;-86
2021/03/31 06:15:20;;;;;;;1.25;0.85;;;10.90;95.50;;;;;;4969549;28;20383;-84
2021/03/31 06:17:50;;;;;;;0.55;0.47;;;11.40;95.10;;;;;;4969002;28;20023;-85
2021/03/31 06:20:50;;;;;;;0.20;0.20;;;11.30;95.00;;;;;;4964291;28;20077;-85
2021/03/31 06:25:57;;;;;;;0.10;0.10;;;12.10;94.10;;;;;;4960304;28;20062;-84
2021/03/31 06:28:38;;;;;;;0.30;0.30;;;11.90;94.60;;;;;;4968296;28;20397;-85
2021/03/31 06:31:09;;;;;;;0.15;0.15;;;12.50;93.80;;;;;;4967772;28;20030;-84
2021/03/31 06:33:36;;;;;;;0.00;0.00;;;12.40;93.40;;;;;;4968808;28;20023;-83
2021/03/31 06:36:04;;;;;;;0.82;0.80;;;13.00;93.20;;;;;;4970242;28;20785;-83
2021/03/31 06:38:45;;;;;;;0.28;0.25;;;13.00;93.00;;;;;;4956320;28;20918;-83
2021/03/31 06:41:30;;;;;;;0.00;0.00;;;13.40;93.00;;;;;;4970704;28;20026;-83
2021/03/31 06:44:13;;;;;;;1.35;0.80;;;13.40;92.80;;;;;;4956970;28;20811;-82
2021/03/31 06:49:08;;;;;;;0.00;0.00;;;13.90;92.80;;;;;;4957470;28;20027;-83
2021/03/31 06:51:35;;;;;;;0.10;0.10;;;14.30;92.00;;;;;;4970186;28;20029;-84
2021/03/31 06:54:16;;;;;;;0.10;0.10;;;14.70;91.80;;;;;;4968663;28;20031;-84
2021/03/31 06:56:53;;;;;;;0.55;0.22;;;14.20;92.50;;;;;;4969213;28;20499;-83
2021/03/31 06:59:30;;;;;;;0.73;0.63;;;14.60;92.20;;;;;;4967020;28;20034;-83
2021/03/31 07:01:59;;;;;;;1.20;1.08;;;15.40;90.60;;;;;;4969819;28;20034;-83
2021/03/31 07:04:26;;;;;;;0.10;0.10;;;15.30;90.90;;;;;;4969941;28;20078;-84
2021/03/31 07:07:11;;;;;;;0.17;0.17;;;15.70;90.60;;;;;;4968479;28;20049;-82
2021/03/31 07:09:40;;;;;;;0.85;0.57;;;16.20;89.40;;;;;;4969622;28;20038;-83
2021/03/31 07:12:24;;;;;;;0.30;0.30;;;16.00;89.60;;;;;;4965434;28;20026;-81
2021/03/31 07:14:51;;;;;;;1.48;0.65;;;16.00;90.70;;;;;;4966154;28;20652;-81
2021/03/31 07:17:24;;;;;;;0.43;0.43;;;15.90;90.20;;;;;;4968348;28;20110;-80
2021/03/31 07:19:51;;;;;;;0.20;0.20;;;15.80;90.30;;;;;;4968419;28;20029;-80
2021/03/31 07:22:19;;;;;;;0.30;0.30;;;16.30;89.50;;;;;;4961081;28;20057;-80
2021/03/31 07:24:53;;;;;;;0.73;0.73;;;16.70;87.80;;;;;;4959832;28;20026;-80
2021/03/31 07:27:21;;;;;;;0.30;0.30;;;16.90;85.70;;;;;;4957553;28;20030;-81
2021/03/31 07:32:56;;;;;;;0.10;0.10;;;17.20;86.50;;;;;;4968089;28;20042;-81
2021/03/31 07:35:25;;;;;;;0.30;0.28;;;17.40;85.80;;;;;;4966885;28;20022;-81
2021/03/31 07:37:53;;;;;;;0.13;0.13;;;17.40;86.30;;;;;;4967929;28;20042;-81
2021/03/31 07:40:20;;;;;;;0.20;0.20;;;18.00;84.30;;;;;;4968176;28;20371;-81
2021/03/31 07:43:17;;;;;;;0.00;0.00;;;18.10;84.20;;;;;;4968496;28;20630;-81
2021/03/31 07:45:55;;;;;;;0.40;0.25;;;18.20;83.90;;;;;;4963686;28;20043;-81
2021/03/31 07:48:22;;;;;;;0.30;0.30;;;18.40;83.80;;;;;;4970826;28;20077;-81
2021/03/31 07:50:49;;;;;;;0.25;0.25;;;18.30;83.60;;;;;;4968352;28;20031;-81
2021/03/31 07:53:16;;;;;;;;;;;18.70;81.10;;;;;;4968474;28;20035;-81
2021/03/31 07:55:47;;;;;;;0.60;0.52;;;19.90;77.60;;;;;;4968056;28;19914;-81
2021/03/31 07:58:13;;;;;;;0.03;0.03;;;20.30;73.70;;;;;;4966444;28;20422;-81
2021/03/31 08:00:52;;;;;;;1.63;0.50;;;20.80;75.20;;;;;;4968011;28;20027;-81
2021/03/31 08:03:21;;;;;;;1.95;0.73;;;20.90;76.30;;;;;;4968065;28;20525;-81
2021/03/31 08:06:06;;;;;;;0.08;0.08;;;21.40;74.10;;;;;;4968248;28;20062;-81
2021/03/31 08:08:52;;;;;;;0.08;0.08;;;20.70;74.70;;;;;;4952959;28;20042;-81
2021/03/31 08:11:39;;;;;;;0.10;0.10;;;20.90;73.80;;;;;;4969141;28;20506;-81
2021/03/31 08:14:36;;;;;;;0.28;0.20;;;21.40;73.80;;;;;;4971689;28;20034;-81
2021/03/31 08:17:08;;;;;;;0.95;0.52;;;21.90;72.00;;;;;;4967837;28;20076;-81
2021/03/31 08:19:42;;;;;;;0.22;0.22;;;22.90;68.80;;;;;;4971272;28;20030;-81
2021/03/31 08:22:40;;;;;;;0.82;0.63;;;23.00;67.50;;;;;;4971265;28;20505;-81
2021/03/31 08:25:22;;;;;;;0.45;0.45;;;22.30;68.40;;;;;;4949215;29;20097;-81
2021/03/31 08:28:05;;;;;;;0.10;0.10;;;22.20;69.70;;;;;;4932788;29;20418;-81
2021/03/31 08:30:33;;;;;;;0.17;0.17;;;22.30;68.80;;;;;;4936767;29;20562;-81
2021/03/31 08:32:59;;;;;;;0.38;0.38;;;22.40;69.70;;;;;;4949394;29;20054;-81
2021/03/31 08:35:27;;;;;;;1.65;0.65;;;23.70;65.60;;;;;;4949047;29;20034;-81
2021/03/31 08:37:53;;;;;;;0.08;0.08;;;23.90;65.40;;;;;;4949186;28;20043;-81
2021/03/31 08:40:19;;;;;;;0.40;0.40;;;23.50;66.00;;;;;;4948826;29;20074;-81
2021/03/31 08:42:55;;;;;;;0.10;0.10;;;24.00;62.80;;;;;;4948849;29;20070;-81
2021/03/31 08:45:33;;;;;;;0.15;0.15;;;24.60;72.70;;;;;;4948667;29;20055;-81
2021/03/31 08:47:59;;;;;;;0.20;0.20;;;26.30;54.30;;;;;;4948780;29;20074;-81
2021/03/31 08:50:33;;;;;;;0.10;0.10;;;25.70;57.80;;;;;;4948730;29;20033;-81
2021/03/31 08:53:02;;;;;;;0.95;0.60;;;25.00;57.30;;;;;;4949091;29;20027;-81
2021/03/31 08:55:33;;;;;;;0.10;0.10;;;24.70;59.70;;;;;;4948747;29;20513;-81
2021/03/31 08:57:59;;;;;;;0.10;0.10;;;25.80;53.70;;;;;;4949071;29;20123;-81
2021/03/31 09:00:25;;;;;;;0.25;0.25;;;26.80;54.80;;;;;;4950903;28;20073;-81
2021/03/31 09:03:02;;;;;;;0.10;0.10;;;27.20;53.60;;;;;;4970149;28;20050;-81
2021/03/31 09:05:28;;;;;;;0.28;0.28;;;27.30;52.00;;;;;;4970625;28;20031;-81
2021/03/31 09:08:01;;;;;;;0.55;0.55;;;28.60;48.00;;;;;;4969121;28;20398;-82
2021/03/31 09:10:29;;;;;;;0.52;0.38;;;28.20;42.80;;;;;;4970573;28;20034;-81
2021/03/31 09:12:56;;;;;;;0.10;0.10;;;27.60;44.50;;;;;;4970452;28;20022;-81
2021/03/31 09:15:22;;;;;;;2.53;0.70;;;28.80;44.80;;;;;;4970720;28;20050;-82
2021/03/31 09:17:54;;;;;;;0.17;0.15;;;28.60;42.00;;;;;;4970245;28;20035;-82
2021/03/31 09:20:20;;;;;;;0.60;0.50;;;27.80;40.60;;;;;;4970160;28;20022;-82
2021/03/31 09:22:46;;;;;;;0.20;0.10;;;27.00;41.00;;;;;;4970538;28;20031;-81
2021/03/31 09:25:14;;;;;;;7.33;1.40;;;26.20;43.70;;;;;;4970278;28;20031;-81
2021/03/31 09:27:40;;;;;;;0.08;0.08;;;26.50;43.40;;;;;;4968693;28;20058;-82
2021/03/31 09:30:12;;;;;;;1.20;0.35;;;25.10;45.40;;;;;;4969872;28;20133;-81
2021/03/31 09:32:43;;;;;;;0.20;0.20;;;27.50;45.80;;;;;;4968699;28;20084;-82
2021/03/31 09:35:16;;;;;;;0.00;0.00;;;28.10;45.30;;;;;;4970066;28;20474;-81
2021/03/31 09:37:52;;;;;;;0.32;0.10;;;28.10;38.90;;;;;;4968571;28;20038;-82
2021/03/31 09:40:29;;;;;;;0.80;0.50;;;27.00;39.80;;;;;;4969774;28;20129;-82
2021/03/31 09:43:00;;;;;;;0.00;0.00;;;27.60;37.10;;;;;;4970279;28;20041;-82
2021/03/31 09:45:34;;;;;;;0.05;0.05;;;29.40;33.60;;;;;;4967867;28;20085;-82
2021/03/31 09:48:02;;;;;;;4.55;0.73;;;28.10;36.30;;;;;;4955604;28;20134;-82
2021/03/31 09:50:30;;;;;;;0.15;0.15;;;26.70;39.40;;;;;;4951870;28;20701;-81
2021/03/31 09:52:59;;;;;;;0.52;0.52;;;27.40;37.30;;;;;;4956803;28;20033;-81
2021/03/31 09:55:25;;;;;;;0.00;0.00;;;27.30;37.90;;;;;;4954174;28;20109;-81
2021/03/31 09:57:52;;;;;;;0.00;0.00;;;29.60;32.40;;;;;;4968970;28;20058;-82
2021/03/31 10:00:20;;;;;;;0.70;0.22;;;29.30;37.40;;;;;;4959874;28;20446;-81
2021/03/31 10:02:46;;;;;;;0.03;0.03;;;29.10;32.30;;;;;;4957384;28;20062;-81
2021/03/31 10:05:19;;;;;;;0.00;0.00;;;29.50;33.00;;;;;;4957532;28;20085;-81
2021/03/31 10:08:21;;;;;;;0.52;0.52;;;27.90;34.00;;;;;;4959190;28;20106;-81
2021/03/31 10:10:49;;;;;;;0.10;0.10;;;28.50;31.20;;;;;;4958660;28;20050;-81
2021/03/31 10:13:18;;;;;;;0.95;0.17;;;33.00;27.30;;;;;;4949960;28;20023;-81
2021/03/31 10:15:48;;;;;;;0.17;0.05;;;32.40;26.50;;;;;;4953183;28;20035;-82
2021/03/31 10:18:14;;;;;;;0.03;0.03;;;29.50;28.20;;;;;;4963171;28;20026;-81
2021/03/31 10:20:46;;;;;;;;;;;31.70;26.70;;;;;;4969375;28;20031;-81
2021/03/31 10:23:36;;;;;;;0.50;0.50;;;29.80;26.80;;;;;;4968277;28;20425;-81
2021/03/31 10:26:23;;;;;;;0.00;0.00;;;28.40;29.90;;;;;;4968834;28;20077;-81
2021/03/31 10:28:50;;;;;;;0.00;0.00;;;29.30;29.90;;;;;;4961077;28;20057;-82
2021/03/31 10:31:31;;;;;;;0.20;0.20;;;29.50;30.40;;;;;;4968623;28;20692;-82
2021/03/31 10:33:57;;;;;;;0.13;0.13;;;27.70;30.00;;;;;;4960839;28;20081;-81
2021/03/31 10:36:46;;;;;;;0.57;0.55;;;29.80;26.90;;;;;;4967333;28;20054;-81
2021/03/31 10:51:09;;;;;;;0.50;0.50;;;30.50;27.50;;;;;;4966177;28;20031;-81
2021/03/31 10:53:34;;;;;;;0.28;0.28;;;30.40;24.60;;;;;;4968115;28;20634;-81
2021/03/31 10:56:02;;;;;;;0.00;0.00;;;29.60;25.90;;;;;;4968676;28;20038;-81
2021/03/31 10:58:28;;;;;;;0.00;0.00;;;29.40;26.20;;;;;;4966590;28;20069;-81
2021/03/31 11:00:54;;;;;;;0.10;0.10;;;29.20;25.70;;;;;;4965269;28;20479;-82
2021/03/31 11:03:24;;;;;;;0.25;0.17;;;31.00;25.80;;;;;;4968474;28;20263;-81
2021/03/31 11:05:50;;;;;;;0.63;0.63;;;31.90;32.70;;;;;;4960995;28;20106;-82
2021/03/31 11:08:16;;;;;;;0.00;0.00;;;28.40;26.50;;;;;;4957071;28;20058;-83
2021/03/31 11:10:42;;;;;;;0.70;0.40;;;30.90;24.20;;;;;;4965420;28;20105;-83
2021/03/31 11:13:08;;;;;;;0.28;0.10;;;29.00;25.80;;;;;;4964042;28;20054;-83
2021/03/31 11:15:34;;;;;;;0.52;0.43;;;30.10;24.60;;;;;;4960948;28;20120;-82
2021/03/31 11:18:06;;;;;;;0.10;0.10;;;30.10;23.30;;;;;;4967876;28;20031;-82
2021/03/31 11:25:56;;;;;;;0.00;0.00;;;28.90;25.50;;;;;;4963709;28;20090;-82
2021/03/31 11:28:22;;;;;;;0.93;0.75;;;31.30;23.30;;;;;;4957856;28;20019;-82
2021/03/31 11:30:49;;;;;;;0.75;0.20;;;31.80;22.60;;;;;;4951934;28;20055;-82
2021/03/31 11:33:15;;;;;;;;;;;32.70;22.90;;;;;;4963658;28;20102;-82
2021/03/31 11:35:40;;;;;;;0.20;0.20;;;32.50;21.80;;;;;;4960288;28;19997;-82
2021/03/31 11:38:06;;;;;;;0.00;0.00;;;28.60;28.30;;;;;;4954264;28;20542;-82
2021/03/31 11:40:33;;;;;;;0.43;0.40;;;29.50;25.40;;;;;;4956521;28;20023;-82
2021/03/31 11:42:59;;;;;;;0.15;0.13;;;26.90;29.10;;;;;;4957410;28;20030;-82
2021/03/31 11:45:25;;;;;;;0.52;0.52;;;26.20;28.70;;;;;;4962836;28;20049;-82
2021/03/31 11:47:51;;;;;;;0.17;0.17;;;25.10;29.40;;;;;;4956264;28;20027;-82
2021/03/31 11:50:17;;;;;;;0.00;0.00;;;24.90;31.00;;;;;;4963487;28;20022;-82
2021/03/31 11:52:43;;;;;;;0.00;0.00;;;24.40;30.80;;;;;;4956673;28;20468;-82
2021/03/31 11:55:10;;;;;;;0.10;0.10;;;23.80;33.80;;;;;;4960865;28;20058;-82
2021/03/31 11:57:36;;;;;;;0.00;0.00;;;24.00;33.70;;;;;;4953449;28;20027;-81
2021/03/31 12:00:04;;;;;;;0.20;0.20;;;24.40;33.10;;;;;;4953995;28;20039;-82
2021/03/31 12:02:30;;;;;;;0.43;0.22;;;24.60;33.30;;;;;;4955422;28;20085;-82
2021/03/31 12:04:56;;;;;;;0.10;0.10;;;24.50;32.60;;;;;;4956790;28;20380;-82
2021/03/31 12:07:23;;;;;;;0.30;0.30;;;24.50;33.80;;;;;;4969252;28;20859;-82
2021/03/31 12:09:49;;;;;;;0.20;0.20;;;24.40;32.00;;;;;;4953829;28;20387;-82
2021/03/31 12:12:16;;;;;;;0.68;0.68;;;24.30;32.90;;;;;;4954863;28;20460;-82
2021/03/31 12:14:42;;;;;;;0.00;0.00;;;24.40;32.70;;;;;;4967750;28;20027;-82
2021/03/31 12:17:09;;;;;;;;;;;24.40;32.10;;;;;;4954576;28;20114;-82
2021/03/31 12:19:35;;;;;;;0.38;0.35;;;24.40;32.80;;;;;;4954625;28;19918;-82
2021/03/31 12:22:02;;;;;;;0.05;0.05;;;24.50;33.10;;;;;;4954739;28;20417;-82
2021/03/31 12:24:30;;;;;;;0.47;0.10;;;24.40;34.80;;;;;;4961985;28;20146;-82
2021/03/31 12:27:05;;;;;;;0.08;0.08;;;24.10;32.70;;;;;;4960065;28;20574;-82
2021/03/31 12:29:33;;;;;;;0.00;0.00;;;24.20;32.40;;;;;;4957459;28;20047;-82
2021/03/31 12:32:05;;;;;;;0.38;0.38;;;24.10;33.30;;;;;;4955575;28;20034;-82
2021/03/31 12:34:33;;;;;;;0.13;0.13;;;23.80;33.80;;;;;;4955530;28;20054;-82
2021/03/31 12:36:59;;;;;;;0.00;0.00;;;24.20;33.80;;;;;;4965489;28;20027;-82
2021/03/31 12:39:24;;;;;;;0.03;0.03;;;24.30;44.90;;;;;;4959114;28;20031;-82
2021/03/31 12:41:50;;;;;;;1.60;1.03;;;24.20;33.50;;;;;;4953306;28;20030;-82
2021/03/31 12:44:16;;;;;;;1.10;1.00;;;24.10;32.80;;;;;;4965831;28;20446;-82
2021/03/31 12:46:42;;;;;;;0.13;0.13;;;24.00;35.40;;;;;;4961506;28;20951;-82
2021/03/31 12:49:09;;;;;;;0.15;0.10;;;23.80;33.40;;;;;;4956941;28;21222;-81
2021/03/31 12:51:39;;;;;;;0.25;0.25;;;23.40;35.50;;;;;;4962088;28;20100;-82
2021/03/31 12:54:27;;;;;;;0.75;0.32;;;23.30;35.10;;;;;;4970813;28;20051;-82
2021/03/31 12:56:54;;;;;;;0.52;0.47;;;23.30;35.10;;;;;;4969838;28;20619;-82
2021/03/31 12:59:20;;;;;;;0.25;0.25;;;23.50;34.80;;;;;;4965100;28;20023;-81
2021/03/31 13:01:45;;;;;;;0.53;0.43;;;23.30;35.10;;;;;;4958319;28;20411;-81
2021/03/31 13:04:13;;;;;;;0.10;0.10;;;23.30;35.00;;;;;;4959912;28;20342;-82
2021/03/31 13:06:39;;;;;;;0.65;0.25;;;23.30;35.20;;;;;;4961814;28;20683;-81
2021/03/31 13:09:05;;;;;;;0.47;0.35;;;23.40;35.10;;;;;;4959691;28;20450;-82
2021/03/31 13:11:32;;;;;;;0.88;0.32;;;23.30;35.20;;;;;;4967059;28;20078;-81
2021/03/31 13:22:13;;;;;;;0.22;0.22;;;23.60;35.00;;;;;;4968233;28;20058;-81
2021/03/31 13:27:49;;;;;;;0.10;0.10;;;23.60;39.00;;;;;;4969742;28;20047;-81
2021/03/31 13:30:42;;;;;;;0.00;0.00;;;23.50;34.90;;;;;;4966061;28;20380;-81
2021/03/31 13:32:58;;;;;;;0.20;0.17;;;23.60;35.50;;;;;;4966841;28;20097;-82
2021/03/31 13:38:51;;;;;;;0.00;0.00;;;23.50;35.70;;;;;;4947170;29;20058;-81
2021/03/31 13:41:08;;;;;;;0.00;0.00;;;23.50;36.70;;;;;;4947827;29;20043;-81
2021/03/31 13:43:34;;;;;;;0.10;0.10;;;23.50;37.10;;;;;;4946598;29;20039;-81